Jacksonville, FL

2:08 PM EDT on August 24, 2016 (GMT -0400)
Jacksonville International | | Change Station

Elev 30 ft 30.49 °N, 81.69 °W | Updated 12 minutes ago

Partly Cloudy
Partly Cloudy
91 °F
Feels Like 96 °F
N
16
Wind Variable Wind from East
Gusts 22 mph

Today
High -- | Low -- °F
--% Chance of Precip.
Yesterday
High -- | Low -- °F
Precip. -- in
Pressure 30.17 in
Visibility 10.0 miles
Clouds Few 4000 ft
Heat Index 96 °F
Dew Point 69 °F
Humidity 48%
Rainfall 0.00 in
Snow Depth Not available.
6:59 AM 7:58 PM
Waning Gibbous, 55% visible
METAR KJAX 241756Z 08014G19KT 10SM FEW040 33/21 A3017 RMK AO2 SLP216 T03280206 10328 20261 58010
Pressure 30.17 in
Visibility 10.0 miles
Clouds Few 4000 ft
Heat Index 96 °F
Dew Point 69 °F
Humidity 48%
Rainfall 0.00 in
Snow Depth Not available.
6:59 AM 7:58 PM
Waning Gibbous, 55% visible
METAR KJAX 241756Z 08014G19KT 10SM FEW040 33/21 A3017 RMK AO2 SLP216 T03280206 10328 20261 58010
A tropical disturbance we've monitored since last week, may have a dangerous future in store for the southeast U.S. and Gulf coasts this weekend into next week. The National Weather Service has issued a flash flood watch for Puerto Rico and the U.S. Virgin Islands. Rainfall totals of 2-4 inches (locally higher) are expected through Wednesday night in those areas.

The National Hurricane Center says this system has a medium to high chance of development into a tropical depression or tropical storm over the next 2 to 5 days. A tight consensus of our guidance suggests the disturbance should continue in a general west or west-northwest trajectory the next several days.

10-Day Weather Forecast

Almanac

Astronomy

Aug. 24, 2016 Rise Set
Actual Time
Civil Twilight
Nautical Twilight
Astronomical Twilight
Moon
Length of Visible Light
Length of Day
Tomorrow will be .
, % of the Moon is Illuminated

Today's Extremes

State Highs State Lows

Community

WunderPhotos

Upload Photos

1,934,662 photos uploaded!

WunderBlog® & News

Nearby

Air Quality

  Air Quality AQ Index Pollutant
Not available.

Snow Depth

Station Depth Elevation

Earthquake Activity

City Distance Mag. Time & Date
Minimum magnitude displayed is 2.5.

Coastal Water Temperatures

Place Temperature

Stations

Nearby Weather Stations

Station Location Temp. Windchill Dew Point Humidity Wind Precip. Elev Updated Type
                   

Watches & Warnings

There are currently no watches in effect.